Picnic Point, Washington
Current Conditions -  °F | °C
As of 4:53 PM on Monday 26 Jan 2015 (Local Time) from KTIW Reporting Station
Clear Clear  
Wind Chill: 57°   Ceiling: Unl
Heat Index: 57°   Visibility: 10mi
Dew Point: 46°   Wind: 5mph
Humidity: 67%   Direction: 260°W
Pressure: 29.92"   Gusts: NA
Location:  47.2986°N, 122.616°W
Report Text: KTIW 270053Z 26004KT 10SM CLR 14/08 A2992 RMK AO2 SLP133 T01390078
Loading
Personal Weather Stations






























Interactive Weather Map New forecast layout! Learn more

10-Day Weather Forecast

Advertisements
Track Severe Weather on mobile